createdAt,value
2022-09-01T00:01:30.313Z,100.00
2022-09-01T00:04:03.286Z,100.00
2022-09-01T00:06:32.800Z,100.00
2022-09-01T00:09:03.697Z,100.00
2022-09-01T00:11:30.801Z,100.00
2022-09-01T00:13:58.785Z,100.00
2022-09-01T00:16:25.283Z,100.00
2022-09-01T00:18:53.670Z,100.00
2022-09-01T00:21:25.226Z,100.00
2022-09-01T00:23:51.924Z,100.00
2022-09-01T00:26:18.565Z,100.00
2022-09-01T00:28:45.044Z,100.00
2022-09-01T00:31:11.822Z,100.00
2022-09-01T00:33:38.870Z,100.00
2022-09-01T00:36:05.606Z,100.00
2022-09-01T00:38:32.926Z,100.00
2022-09-01T00:41:00.718Z,100.00
2022-09-01T00:43:42.035Z,100.00
2022-09-01T00:46:12.770Z,100.00
2022-09-01T00:48:39.684Z,100.00
2022-09-01T00:51:09.928Z,100.00
2022-09-01T00:53:38.566Z,100.00
2022-09-01T00:56:07.416Z,100.00
2022-09-01T00:58:36.108Z,100.00
2022-09-01T01:01:05.281Z,100.00
2022-09-01T01:03:31.772Z,100.00
2022-09-01T01:06:03.391Z,100.00
2022-09-01T01:08:36.284Z,100.00
2022-09-01T01:11:18.038Z,100.00
2022-09-01T01:14:12.059Z,100.00
2022-09-01T01:16:44.720Z,100.00
2022-09-01T01:19:50.555Z,100.00
2022-09-01T01:22:45.407Z,100.00
2022-09-01T01:25:12.827Z,100.00
2022-09-01T01:27:43.614Z,100.00
2022-09-01T01:30:11.679Z,100.00
2022-09-01T01:32:43.197Z,100.00
2022-09-01T01:35:14.655Z,100.00
2022-09-01T01:37:45.754Z,100.00
2022-09-01T01:40:17.722Z,100.00
2022-09-01T01:42:50.689Z,100.00
2022-09-01T01:45:20.126Z,100.00
2022-09-01T01:47:52.345Z,100.00
2022-09-01T01:50:35.753Z,100.00
2022-09-01T01:53:11.483Z,100.00
2022-09-01T01:55:40.048Z,100.00
2022-09-01T01:58:12.027Z,100.00
2022-09-01T02:00:38.981Z,100.00
2022-09-01T02:03:07.448Z,100.00
2022-09-01T02:05:36.164Z,100.00
2022-09-01T02:08:06.359Z,100.00
2022-09-01T02:10:44.007Z,100.00
2022-09-01T02:13:16.284Z,100.00
2022-09-01T02:15:48.899Z,100.00
2022-09-01T02:18:24.601Z,100.00
2022-09-01T02:20:52.146Z,100.00
2022-09-01T02:23:23.406Z,100.00
2022-09-01T02:26:15.163Z,100.00
2022-09-01T02:28:42.588Z,100.00
2022-09-01T02:31:11.284Z,100.00
2022-09-01T02:33:40.056Z,100.00
2022-09-01T02:36:14.153Z,100.00
2022-09-01T02:38:46.091Z,100.00
2022-09-01T02:41:14.673Z,100.00
2022-09-01T02:43:43.414Z,100.00
2022-09-01T02:46:10.636Z,100.00
2022-09-01T02:48:41.225Z,100.00
2022-09-01T02:51:14.479Z,100.00
2022-09-01T02:53:42.736Z,100.00
2022-09-01T02:56:15.374Z,100.00
2022-09-01T02:58:47.779Z,100.00
2022-09-01T03:01:30.187Z,100.00
2022-09-01T03:04:02.775Z,100.00
2022-09-01T03:06:31.402Z,100.00
2022-09-01T03:09:00.144Z,100.00
2022-09-01T03:11:31.716Z,100.00
2022-09-01T03:13:58.275Z,100.00
2022-09-01T03:16:24.808Z,100.00
2022-09-01T03:18:52.251Z,100.00
2022-09-01T03:21:20.304Z,100.00
2022-09-01T03:23:49.104Z,100.00
2022-09-01T03:26:18.591Z,100.00
2022-09-01T03:28:46.160Z,100.00
2022-09-01T03:31:12.777Z,100.00
2022-09-01T03:33:39.548Z,100.00
2022-09-01T03:36:08.401Z,100.00
2022-09-01T03:38:43.825Z,100.00
2022-09-01T03:41:12.952Z,100.00
2022-09-01T03:43:39.601Z,100.00
2022-09-01T03:46:21.779Z,100.00
2022-09-01T03:48:55.087Z,100.00
2022-09-01T03:51:23.565Z,100.00
2022-09-01T03:53:54.943Z,100.00
2022-09-01T03:56:24.652Z,100.00
2022-09-01T03:58:52.069Z,100.00
2022-09-01T04:01:19.703Z,100.00
2022-09-01T04:03:49.114Z,100.00
2022-09-01T04:06:18.602Z,100.00
2022-09-01T04:08:46.809Z,100.00
2022-09-01T04:11:19.087Z,100.00
2022-09-01T04:13:47.185Z,100.00
2022-09-01T04:16:40.721Z,100.00
2022-09-01T04:19:15.986Z,100.00
2022-09-01T04:21:43.886Z,100.00
2022-09-01T04:24:12.163Z,100.00
2022-09-01T04:26:38.704Z,100.00
2022-09-01T04:29:09.049Z,100.00
2022-09-01T04:31:38.679Z,100.00
2022-09-01T04:34:11.630Z,100.00
2022-09-01T04:36:39.000Z,100.00
2022-09-01T04:39:09.445Z,100.00
2022-09-01T04:41:50.512Z,100.00
2022-09-01T04:44:18.974Z,100.00
2022-09-01T04:46:50.718Z,100.00
2022-09-01T04:49:22.195Z,100.00
2022-09-01T04:51:53.625Z,100.00
2022-09-01T04:54:22.560Z,100.00
2022-09-01T04:56:51.119Z,100.00
2022-09-01T04:59:21.568Z,100.00
2022-09-01T05:01:50.385Z,100.00
2022-09-01T05:04:20.313Z,100.00
2022-09-01T05:06:54.502Z,100.00
2022-09-01T05:09:20.997Z,100.00
2022-09-01T05:11:48.486Z,100.00
2022-09-01T05:14:18.428Z,100.00
2022-09-01T05:16:45.549Z,100.00
2022-09-01T05:19:14.803Z,100.00
2022-09-01T05:21:46.290Z,100.00
2022-09-01T05:24:19.069Z,100.00
2022-09-01T05:26:50.745Z,100.00
2022-09-01T05:29:17.819Z,100.00
2022-09-01T05:31:46.941Z,100.00
2022-09-01T05:34:19.974Z,100.00
2022-09-01T05:36:50.501Z,100.00
2022-09-01T05:39:17.095Z,100.00
2022-09-01T05:41:43.855Z,100.00
2022-09-01T05:44:11.173Z,100.00
2022-09-01T05:46:39.443Z,100.00
2022-09-01T05:49:08.130Z,100.00
2022-09-01T05:51:45.789Z,100.00
2022-09-01T05:54:16.332Z,100.00
2022-09-01T05:56:44.579Z,100.00
2022-09-01T05:59:28.603Z,100.00
2022-09-01T06:01:55.598Z,100.00
2022-09-01T06:04:25.422Z,100.00
2022-09-01T06:07:10.215Z,100.00
2022-09-01T06:09:43.880Z,100.00
2022-09-01T06:12:18.938Z,100.00
2022-09-01T06:14:47.035Z,100.00
2022-09-01T06:17:16.362Z,100.00
2022-09-01T06:19:43.865Z,100.00
2022-09-01T06:22:10.846Z,100.00
2022-09-01T06:24:40.834Z,100.00
2022-09-01T06:27:10.494Z,100.00
2022-09-01T06:29:39.705Z,100.00
2022-09-01T06:32:09.840Z,100.00
2022-09-01T06:34:42.463Z,100.00
2022-09-01T06:37:10.988Z,100.00
2022-09-01T06:39:37.721Z,100.00
2022-09-01T06:42:06.211Z,100.00
2022-09-01T06:44:33.298Z,100.00
2022-09-01T06:47:00.098Z,100.00
2022-09-01T06:49:32.439Z,100.00
2022-09-01T06:52:00.533Z,100.00
2022-09-01T06:54:27.087Z,100.00
2022-09-01T06:56:53.651Z,100.00
2022-09-01T06:59:21.733Z,100.00
2022-09-01T07:01:49.280Z,100.00
2022-09-01T07:04:20.065Z,100.00
2022-09-01T07:06:59.672Z,100.00
2022-09-01T07:09:38.887Z,100.00
2022-09-01T07:12:29.420Z,100.00
2022-09-01T07:17:52.308Z,100.00
2022-09-01T07:20:24.503Z,100.00
2022-09-01T07:23:08.173Z,100.00
2022-09-01T07:26:01.237Z,100.00
2022-09-01T07:28:36.069Z,100.00
2022-09-01T07:34:37.699Z,100.00
2022-09-01T07:45:27.633Z,100.00
2022-09-01T07:47:54.892Z,100.00
2022-09-01T07:50:38.560Z,100.00
2022-09-01T07:53:17.657Z,100.00
2022-09-01T07:55:49.889Z,100.00
2022-09-01T07:58:18.500Z,100.00
2022-09-01T08:00:47.425Z,100.00
2022-09-01T08:03:14.631Z,100.00
2022-09-01T08:05:41.338Z,100.00
2022-09-01T08:08:18.601Z,100.00
2022-09-01T08:10:49.030Z,100.00
2022-09-01T08:13:16.998Z,100.00
2022-09-01T08:18:50.162Z,100.00
2022-09-01T08:21:18.575Z,100.00
2022-09-01T08:23:45.244Z,100.00
2022-09-01T08:26:15.446Z,100.00
2022-09-01T08:28:46.014Z,100.00
2022-09-01T08:31:13.740Z,100.00
2022-09-01T08:33:42.604Z,100.00
2022-09-01T08:36:12.538Z,100.00
2022-09-01T08:38:40.634Z,100.00
2022-09-01T08:41:35.027Z,100.00
2022-09-01T08:44:27.265Z,100.00
2022-09-01T08:47:08.141Z,100.00
2022-09-01T08:49:44.040Z,100.00
2022-09-01T08:52:25.286Z,100.00
2022-09-01T08:55:00.666Z,100.00
2022-09-01T08:57:36.776Z,100.00
2022-09-01T09:00:09.179Z,100.00
2022-09-01T09:02:54.131Z,100.00
2022-09-01T09:05:35.757Z,100.00
2022-09-01T09:08:24.797Z,100.00
2022-09-01T09:11:00.923Z,100.00
2022-09-01T09:13:36.307Z,100.00
2022-09-01T09:16:10.753Z,100.00
2022-09-01T09:18:56.775Z,100.00
2022-09-01T09:21:50.700Z,100.00
2022-09-01T09:24:52.868Z,100.00
2022-09-01T09:27:30.092Z,100.00
2022-09-01T09:30:11.329Z,100.00
2022-09-01T09:35:50.479Z,100.00
2022-09-01T09:40:25.114Z,99.80
2022-09-01T09:41:26.848Z,99.00
2022-09-01T09:44:03.109Z,97.29
2022-09-01T09:46:32.734Z,97.52
2022-09-01T09:49:34.727Z,98.80
2022-09-01T09:52:10.071Z,98.57
2022-09-01T09:54:38.869Z,96.81
2022-09-01T09:57:08.302Z,95.69
2022-09-01T10:00:00.574Z,93.51
2022-09-01T10:02:43.104Z,87.72
2022-09-01T10:05:33.744Z,88.28
2022-09-01T10:08:00.144Z,89.33
2022-09-01T10:10:31.901Z,89.09
2022-09-01T10:12:59.795Z,91.39
2022-09-01T10:15:30.747Z,91.10
2022-09-01T10:18:21.040Z,88.91
2022-09-01T10:21:00.453Z,90.39
2022-09-01T10:23:31.574Z,88.49
2022-09-01T10:26:09.749Z,87.78
2022-09-01T10:28:47.237Z,88.12
2022-09-01T10:31:17.917Z,88.68
2022-09-01T10:33:45.125Z,90.58
2022-09-01T10:36:14.380Z,90.68
2022-09-01T10:38:46.861Z,92.31
2022-09-01T10:41:44.023Z,88.04
2022-09-01T10:44:13.410Z,90.10
2022-09-01T10:46:50.484Z,90.45
2022-09-01T10:49:28.028Z,87.61
2022-09-01T10:52:03.268Z,89.54
2022-09-01T10:54:55.957Z,82.17
2022-09-01T10:57:31.622Z,84.68
2022-09-01T11:00:39.944Z,82.91
2022-09-01T11:06:13.126Z,84.80
2022-09-01T11:08:58.467Z,86.29
2022-09-01T11:11:34.155Z,87.40
2022-09-01T11:14:01.169Z,86.16
2022-09-01T11:16:49.345Z,88.66
2022-09-01T11:19:24.317Z,87.91
2022-09-01T11:22:23.364Z,83.31
2022-09-01T11:25:12.523Z,86.70
2022-09-01T11:27:48.473Z,87.47
2022-09-01T11:30:41.812Z,84.31
2022-09-01T11:33:11.519Z,85.53
2022-09-01T11:35:37.996Z,85.85
2022-09-01T11:38:07.800Z,84.32
2022-09-01T11:40:35.772Z,84.03
2022-09-01T11:43:12.429Z,83.81
2022-09-01T11:45:51.986Z,81.85
2022-09-01T11:48:18.845Z,83.20
2022-09-01T11:50:45.402Z,79.87
2022-09-01T11:53:22.094Z,81.17
2022-09-01T11:55:51.679Z,81.29
2022-09-01T11:58:34.523Z,78.68
2022-09-01T12:01:19.906Z,83.30
2022-09-01T12:03:48.714Z,79.33
2022-09-01T12:06:25.277Z,78.86
2022-09-01T12:08:58.689Z,81.03
2022-09-01T12:11:31.350Z,80.76
2022-09-01T12:14:12.117Z,82.32
2022-09-01T12:16:42.403Z,81.33
2022-09-01T12:19:22.108Z,80.61
2022-09-01T12:21:58.938Z,80.91
2022-09-01T12:24:26.404Z,81.50
2022-09-01T12:26:55.736Z,79.58
2022-09-01T12:29:23.195Z,79.26
2022-09-01T12:31:52.570Z,81.64
2022-09-01T12:34:47.878Z,81.21
2022-09-01T12:37:25.289Z,79.87
2022-09-01T12:39:54.959Z,79.13
2022-09-01T12:42:21.424Z,79.80
2022-09-01T12:45:03.330Z,76.50
2022-09-01T12:47:48.194Z,78.37
2022-09-01T12:50:16.428Z,78.72
2022-09-01T12:52:52.766Z,78.94
2022-09-01T12:58:12.658Z,78.39
2022-09-01T13:01:05.680Z,74.01
2022-09-01T13:03:34.746Z,76.58
2022-09-01T13:06:03.395Z,78.91
2022-09-01T13:08:33.106Z,77.46
2022-09-01T13:11:09.140Z,77.58
2022-09-01T13:13:37.467Z,77.38
2022-09-01T13:16:08.451Z,74.90
2022-09-01T13:19:10.433Z,74.36
2022-09-01T13:21:21.834Z,75.72
2022-09-01T13:23:50.752Z,74.85
2022-09-01T13:26:17.585Z,75.25
2022-09-01T13:28:45.939Z,75.18
2022-09-01T13:31:29.477Z,76.37
2022-09-01T13:34:21.653Z,76.21
2022-09-01T13:36:45.482Z,76.21
2022-09-01T13:39:15.451Z,76.64
2022-09-01T13:41:42.372Z,76.21
2022-09-01T13:44:10.404Z,76.31
2022-09-01T13:46:59.027Z,76.21
2022-09-01T13:52:11.481Z,74.74
2022-09-01T13:54:37.996Z,75.04
2022-09-01T13:57:05.968Z,74.34
2022-09-01T13:59:33.100Z,75.40
2022-09-01T14:02:01.527Z,74.37
2022-09-01T14:04:28.164Z,73.08
2022-09-01T14:06:55.164Z,74.16
2022-09-01T14:09:21.994Z,73.72
2022-09-01T14:11:48.488Z,73.60
2022-09-01T14:14:15.038Z,73.92
2022-09-01T14:16:41.575Z,74.75
2022-09-01T14:19:08.388Z,76.15
2022-09-01T14:21:34.841Z,75.25
2022-09-01T14:24:01.352Z,74.52
2022-09-01T14:26:28.125Z,75.07
2022-09-01T14:28:54.975Z,75.36
2022-09-01T14:31:21.601Z,75.14
2022-09-01T14:33:49.093Z,75.44
2022-09-01T14:36:22.318Z,72.79
2022-09-01T14:38:49.890Z,73.76
2022-09-01T14:41:22.971Z,72.89
2022-09-01T14:43:53.808Z,73.07
2022-09-01T14:46:21.044Z,72.24
2022-09-01T14:48:48.738Z,70.73
2022-09-01T14:51:24.581Z,71.62
2022-09-01T14:53:52.654Z,71.99
2022-09-01T14:56:19.776Z,72.39
2022-09-01T14:58:47.234Z,72.42
2022-09-01T15:01:33.080Z,73.89
2022-09-01T15:04:00.514Z,72.10
2022-09-01T15:06:26.989Z,70.47
2022-09-01T15:08:53.503Z,68.61
2022-09-01T15:11:21.180Z,69.54
2022-09-01T15:13:50.337Z,70.75
2022-09-01T15:16:23.036Z,70.17
2022-09-01T15:18:49.659Z,70.47
2022-09-01T15:21:23.650Z,70.83
2022-09-01T15:23:50.936Z,72.47
2022-09-01T15:26:18.356Z,71.87
2022-09-01T15:28:45.615Z,71.86
2022-09-01T15:31:14.474Z,72.67
2022-09-01T15:33:43.990Z,72.12
2022-09-01T15:36:17.513Z,70.62
2022-09-01T15:38:44.561Z,71.48
2022-09-01T15:41:19.996Z,72.61
2022-09-01T15:43:46.525Z,72.26
2022-09-01T15:46:14.374Z,71.46
2022-09-01T15:48:46.930Z,71.90
2022-09-01T15:51:22.523Z,71.35
2022-09-01T15:53:50.120Z,71.82
2022-09-01T15:56:18.504Z,71.91
2022-09-01T15:59:00.771Z,71.42
2022-09-01T16:01:30.786Z,71.94
2022-09-01T16:03:57.787Z,72.66
2022-09-01T16:06:26.385Z,73.07
2022-09-01T16:08:54.373Z,75.14
2022-09-01T16:11:23.415Z,76.35
2022-09-01T16:13:53.626Z,76.23
2022-09-01T16:16:20.122Z,76.02
2022-09-01T16:18:55.605Z,76.31
2022-09-01T16:21:40.495Z,76.40
2022-09-01T16:24:12.083Z,76.15
2022-09-01T16:26:39.223Z,76.57
2022-09-01T16:29:15.720Z,76.27
2022-09-01T16:31:42.263Z,75.55
2022-09-01T16:34:18.743Z,75.27
2022-09-01T16:36:55.160Z,75.20
2022-09-01T16:39:34.964Z,75.64
2022-09-01T16:42:13.329Z,74.82
2022-09-01T16:44:53.790Z,74.04
2022-09-01T16:47:35.040Z,74.02
2022-09-01T16:50:16.787Z,75.32
2022-09-01T16:53:21.976Z,75.60
2022-09-01T16:56:11.968Z,76.47
2022-09-01T17:02:17.850Z,76.95
2022-09-01T17:04:49.810Z,77.54
2022-09-01T17:07:21.671Z,77.73
2022-09-01T17:10:06.036Z,77.71
2022-09-01T17:12:48.967Z,76.86
2022-09-01T17:15:27.674Z,77.14
2022-09-01T17:18:22.829Z,77.87
2022-09-01T17:20:58.424Z,78.11
2022-09-01T17:23:38.062Z,78.53
2022-09-01T17:26:12.117Z,79.16
2022-09-01T17:28:44.981Z,79.18
2022-09-01T17:31:22.070Z,79.20
2022-09-01T17:34:09.873Z,78.36
2022-09-01T17:37:14.215Z,78.29
2022-09-01T17:40:17.096Z,78.75
2022-09-01T17:42:57.938Z,78.79
2022-09-01T17:45:38.621Z,78.50
2022-09-01T17:48:17.937Z,78.54
2022-09-01T17:51:16.812Z,79.17
2022-09-01T17:54:12.436Z,78.91
2022-09-01T17:56:48.842Z,78.41
2022-09-01T17:59:30.255Z,78.70
2022-09-01T18:02:07.810Z,78.94
2022-09-01T18:04:48.943Z,79.19
2022-09-01T18:07:19.698Z,79.89
2022-09-01T18:09:52.443Z,79.81
2022-09-01T18:12:27.031Z,79.92
2022-09-01T18:15:08.810Z,80.93
2022-09-01T18:17:41.129Z,80.59
2022-09-01T18:20:24.608Z,81.00
2022-09-01T18:22:54.275Z,81.85
2022-09-01T18:25:31.265Z,82.81
2022-09-01T18:27:57.731Z,83.88
2022-09-01T18:30:42.785Z,84.02
2022-09-01T18:33:29.626Z,84.45
2022-09-01T18:36:09.732Z,85.74
2022-09-01T18:38:53.099Z,86.16
2022-09-01T18:41:28.567Z,86.00
2022-09-01T18:44:01.929Z,86.21
2022-09-01T18:46:41.046Z,86.32
2022-09-01T18:49:31.207Z,86.55
2022-09-01T18:52:27.142Z,86.66
2022-09-01T18:55:16.654Z,88.03
2022-09-01T18:57:47.092Z,87.86
2022-09-01T19:00:19.619Z,88.32
2022-09-01T19:02:55.718Z,88.64
2022-09-01T19:05:33.276Z,89.35
2022-09-01T19:08:27.541Z,90.21
2022-09-01T19:11:11.138Z,91.42
2022-09-01T19:13:53.548Z,91.54
2022-09-01T19:16:38.612Z,91.48
2022-09-01T19:19:07.967Z,91.25
2022-09-01T19:21:36.292Z,90.87
2022-09-01T19:24:28.007Z,90.76
2022-09-01T19:27:03.282Z,91.22
2022-09-01T19:29:36.323Z,91.16
2022-09-01T19:32:08.715Z,90.83
2022-09-01T19:34:42.980Z,90.79
2022-09-01T19:37:11.071Z,90.20
2022-09-01T19:39:44.587Z,90.14
2022-09-01T19:42:39.833Z,90.41
2022-09-01T19:45:22.925Z,90.09
2022-09-01T19:47:55.851Z,89.77
2022-09-01T19:50:31.946Z,89.84
2022-09-01T19:53:07.661Z,89.55
2022-09-01T19:55:53.910Z,89.91
2022-09-01T19:58:38.822Z,90.26
2022-09-01T20:01:12.036Z,90.08
2022-09-01T20:03:50.487Z,90.39
2022-09-01T20:06:42.554Z,90.19
2022-09-01T20:09:14.965Z,89.79
2022-09-01T20:11:41.446Z,90.12
2022-09-01T20:14:20.293Z,90.36
2022-09-01T20:16:52.813Z,90.57
2022-09-01T20:19:56.740Z,90.58
2022-09-01T20:22:32.683Z,90.30
2022-09-01T20:25:10.194Z,90.81
2022-09-01T20:28:17.649Z,91.47
2022-09-01T20:30:51.030Z,91.50
2022-09-01T20:33:44.105Z,91.50
2022-09-01T20:36:41.410Z,92.52
2022-09-01T20:39:39.030Z,92.10
2022-09-01T20:42:23.041Z,92.63
2022-09-01T20:44:58.439Z,92.95
2022-09-01T20:47:27.885Z,92.64
2022-09-01T20:49:56.873Z,93.10
2022-09-01T20:52:56.152Z,93.65
2022-09-01T20:55:58.043Z,93.84
2022-09-01T20:58:46.710Z,93.94
2022-09-01T21:01:54.986Z,94.25
2022-09-01T21:04:36.838Z,94.07
2022-09-01T21:07:19.215Z,94.94
2022-09-01T21:10:17.168Z,95.03
2022-09-01T21:12:48.689Z,95.34
2022-09-01T21:16:03.604Z,96.76
2022-09-01T21:18:46.583Z,97.09
2022-09-01T21:21:36.105Z,97.15
2022-09-01T21:24:03.932Z,97.05
2022-09-01T21:26:31.205Z,96.95
2022-09-01T21:29:04.256Z,97.39
2022-09-01T21:31:30.982Z,97.43
2022-09-01T21:33:57.468Z,97.29
2022-09-01T21:36:23.970Z,97.16
2022-09-01T21:38:50.547Z,97.20
2022-09-01T21:41:17.074Z,97.54
2022-09-01T21:43:45.762Z,97.46
2022-09-01T21:46:14.538Z,97.36
2022-09-01T21:48:41.298Z,97.28
2022-09-01T21:51:07.867Z,97.39
2022-09-01T21:53:34.362Z,98.01
2022-09-01T21:56:01.148Z,97.57
2022-09-01T21:58:27.913Z,96.88
2022-09-01T22:00:54.544Z,96.87
2022-09-01T22:03:21.242Z,96.66
2022-09-01T22:05:47.753Z,96.56
2022-09-01T22:08:17.270Z,96.62
2022-09-01T22:10:47.090Z,96.52
2022-09-01T22:13:13.903Z,97.04
2022-09-01T22:15:44.048Z,96.90
2022-09-01T22:18:11.186Z,96.93
2022-09-01T22:20:38.297Z,96.82
2022-09-01T22:23:05.009Z,96.70
2022-09-01T22:25:33.049Z,96.41
2022-09-01T22:28:01.697Z,96.75
2022-09-01T22:30:28.930Z,96.30
2022-09-01T22:32:55.485Z,96.07
2022-09-01T22:35:22.115Z,96.97
2022-09-01T22:37:49.127Z,96.97
2022-09-01T22:40:16.580Z,97.23
2022-09-01T22:42:43.617Z,96.98
2022-09-01T22:45:13.004Z,97.55
2022-09-01T22:47:39.683Z,97.97
2022-09-01T22:50:08.208Z,98.15
2022-09-01T22:52:35.901Z,97.81
2022-09-01T22:55:03.409Z,98.24
2022-09-01T22:57:30.156Z,99.00
2022-09-01T22:59:56.691Z,99.27
2022-09-01T23:02:23.500Z,100.00
2022-09-01T23:04:50.377Z,100.00
2022-09-01T23:07:16.889Z,100.00
2022-09-01T23:09:43.365Z,100.00
2022-09-01T23:12:09.849Z,100.00
2022-09-01T23:14:36.312Z,100.00
2022-09-01T23:17:02.965Z,100.00
2022-09-01T23:19:29.504Z,100.00
2022-09-01T23:21:56.022Z,100.00
2022-09-01T23:24:22.774Z,100.00
2022-09-01T23:26:49.776Z,100.00
2022-09-01T23:29:16.806Z,100.00
2022-09-01T23:31:44.198Z,100.00
2022-09-01T23:34:11.183Z,100.00
2022-09-01T23:36:37.698Z,100.00
2022-09-01T23:39:05.771Z,100.00
2022-09-01T23:41:34.181Z,100.00
2022-09-01T23:44:03.591Z,100.00
2022-09-01T23:46:42.053Z,100.00
2022-09-01T23:49:10.300Z,100.00
2022-09-01T23:51:37.040Z,100.00
2022-09-01T23:54:03.702Z,100.00
2022-09-01T23:56:30.693Z,100.00
2022-09-01T23:58:58.484Z,100.00
